This is the latest recevied weather packets stored in our database for station/object KD4PMP. If no packets are shown the sender has not sent any weather packets the latest 10 day(s).
| Time | Temp. | Humidity | Pressure | Rain* | Wind** | Luminosity | Snow |
|---|---|---|---|---|---|---|---|
| 1777519811 | 16.11° C | 75% | 1014.2 hPa | 0 mm | - | - | - |
| 1777519210 | 16.11° C | 75% | 1014.2 hPa | 0 mm | - | - | - |
| 1777518610 | 16.11° C | 75% | 1013.7 hPa | 0 mm | - | - | - |
| 1777518010 | 16.67° C | 75% | 1013.8 hPa | 0 mm | - | - | - |
| 1777517409 | 16.67° C | 75% | 1014 hPa | 0 mm | - | - | - |
| 1777516809 | 16.67° C | 76% | 1014.1 hPa | 0 mm | - | - | - |
| 1777516209 | 16.67° C | 77% | 1013.7 hPa | 0 mm | - | - | - |
| 1777515609 | 16.67° C | 77% | 1013.4 hPa | 0 mm | - | - | - |
| 1777515008 | 16.67° C | 78% | 1013.4 hPa | 0 mm | - | - | - |
| 1777514408 | 16.67° C | 78% | 1013.4 hPa | 0 mm | - | - | - |
| 1777513807 | 16.67° C | 78% | 1013.4 hPa | 0 mm | - | - | - |
| 1777512007 | 17.22° C | 79% | 1012.7 hPa | 0 mm | - | - | - |
| 1777511406 | 17.22° C | 80% | 1012.7 hPa | 0 mm | - | - | - |
| 1777510206 | 17.78° C | 80% | 1012.3 hPa | 0 mm | - | - | - |
| 1777507805 | 19.44° C | 75% | 1011.9 hPa | 0 mm | - | - | - |
| 1777505404 | 20° C | 69% | 1011.9 hPa | 0 mm | - | - | - |
| 1777502403 | 20.56° C | 70% | 1012 hPa | 0 mm | - | - | - |
| 1777498200 | 19.44° C | 76% | 1012.2 hPa | 0 mm | - | - | - |
| 1777497000 | 18.89° C | 81% | 1012.4 hPa | 0 mm | - | - | - |
| 1777493998 | 18.89° C | 81% | 1012.5 hPa | 0 mm | - | - | - |
| 1777492828 | 19.44° C | 81% | 1012.7 hPa | 0 mm | - | - | - |
| 1777488596 | 20° C | 82% | 1012.7 hPa | 0 mm | - | - | - |
| 1777487395 | 20° C | 80% | 1012.7 hPa | 0 mm | - | - | - |
| 1777486825 | 20° C | 82% | 1012.5 hPa | 0 mm | - | - | - |
| 1777483793 | 20.56° C | 85% | 1012.6 hPa | 0 mm | - | - | - |
* Rain latest hour (hover to see other rain measurements)
** Current wind speed in m/s (hover to see current wind gust speed)